sensor_id;sensor_type;location;lat;lon;timestamp;pressure;altitude;pressure_sealevel;temperature;humidity
43480;BME280;29067;35.492;-97.520;2023-03-22T00:02:13;96616.05;;;16.89;48.64
43480;BME280;29067;35.492;-97.520;2023-03-22T00:04:42;96615.77;;;17.96;47.47
43480;BME280;29067;35.492;-97.520;2023-03-22T00:07:10;96616.61;;;17.47;47.48
43480;BME280;29067;35.492;-97.520;2023-03-22T00:09:39;96623.80;;;15.81;50.22
43480;BME280;29067;35.492;-97.520;2023-03-22T00:12:07;96634.19;;;17.21;48.14
43480;BME280;29067;35.492;-97.520;2023-03-22T00:14:36;96635.77;;;17.37;48.34
43480;BME280;29067;35.492;-97.520;2023-03-22T00:17:04;96639.68;;;17.66;47.51
43480;BME280;29067;35.492;-97.520;2023-03-22T00:19:32;96648.58;;;16.43;50.93
43480;BME280;29067;35.492;-97.520;2023-03-22T00:22:00;96660.03;;;16.01;53.01
43480;BME280;29067;35.492;-97.520;2023-03-22T00:24:29;96666.95;;;15.64;56.28
43480;BME280;29067;35.492;-97.520;2023-03-22T00:26:56;96663.93;;;16.04;56.18
43480;BME280;29067;35.492;-97.520;2023-03-22T00:29:24;96662.43;;;16.29;56.16
43480;BME280;29067;35.492;-97.520;2023-03-22T00:31:52;96659.76;;;16.72;55.36
43480;BME280;29067;35.492;-97.520;2023-03-22T00:34:21;96663.73;;;17.51;54.12
43480;BME280;29067;35.492;-97.520;2023-03-22T00:36:49;96674.33;;;16.25;56.29
43480;BME280;29067;35.492;-97.520;2023-03-22T00:39:18;96670.82;;;16.59;55.86
43480;BME280;29067;35.492;-97.520;2023-03-22T00:41:45;96675.88;;;16.35;55.63
43480;BME280;29067;35.492;-97.520;2023-03-22T00:44:13;96687.84;;;15.62;58.27
43480;BME280;29067;35.492;-97.520;2023-03-22T00:46:42;96687.35;;;14.91;59.06
43480;BME280;29067;35.492;-97.520;2023-03-22T00:49:09;96681.39;;;14.69;59.91
43480;BME280;29067;35.492;-97.520;2023-03-22T00:51:37;96678.99;;;15.83;59.66
43480;BME280;29067;35.492;-97.520;2023-03-22T00:54:05;96681.23;;;15.81;57.97
43480;BME280;29067;35.492;-97.520;2023-03-22T00:56:32;96685.55;;;14.86;61.85
43480;BME280;29067;35.492;-97.520;2023-03-22T00:59:00;96684.88;;;14.87;62.50
43480;BME280;29067;35.492;-97.520;2023-03-22T01:01:28;96689.99;;;15.23;61.82
43480;BME280;29067;35.492;-97.520;2023-03-22T01:03:56;96682.05;;;14.34;63.83
43480;BME280;29067;35.492;-97.520;2023-03-22T01:06:24;96687.61;;;14.37;65.46
43480;BME280;29067;35.492;-97.520;2023-03-22T01:08:52;96690.00;;;14.79;64.15
43480;BME280;29067;35.492;-97.520;2023-03-22T01:11:21;96694.01;;;13.95;67.62
43480;BME280;29067;35.492;-97.520;2023-03-22T01:13:48;96695.33;;;13.11;68.70
43480;BME280;29067;35.492;-97.520;2023-03-22T01:16:17;96707.80;;;13.85;68.62
43480;BME280;29067;35.492;-97.520;2023-03-22T01:18:45;96718.72;;;13.59;70.78
43480;BME280;29067;35.492;-97.520;2023-03-22T01:21:13;96710.70;;;13.67;69.49
43480;BME280;29067;35.492;-97.520;2023-03-22T01:23:41;96704.80;;;13.50;69.56
43480;BME280;29067;35.492;-97.520;2023-03-22T01:26:08;96716.45;;;13.57;69.72
43480;BME280;29067;35.492;-97.520;2023-03-22T01:28:36;96712.57;;;13.76;68.61
43480;BME280;29067;35.492;-97.520;2023-03-22T01:31:04;96710.58;;;13.97;67.85
43480;BME280;29067;35.492;-97.520;2023-03-22T01:33:32;96706.31;;;14.20;68.52
43480;BME280;29067;35.492;-97.520;2023-03-22T01:36:00;96722.11;;;13.44;70.38
43480;BME280;29067;35.492;-97.520;2023-03-22T01:38:28;96717.97;;;13.66;70.01
43480;BME280;29067;35.492;-97.520;2023-03-22T01:40:55;96713.18;;;13.00;72.59
43480;BME280;29067;35.492;-97.520;2023-03-22T01:43:23;96710.52;;;13.26;75.41
43480;BME280;29067;35.492;-97.520;2023-03-22T01:45:51;96720.48;;;13.91;72.25
43480;BME280;29067;35.492;-97.520;2023-03-22T01:48:24;96720.82;;;13.49;71.53
43480;BME280;29067;35.492;-97.520;2023-03-22T01:50:59;96723.95;;;13.39;71.51
43480;BME280;29067;35.492;-97.520;2023-03-22T01:53:31;96733.08;;;13.76;73.10
43480;BME280;29067;35.492;-97.520;2023-03-22T01:56:00;96739.92;;;13.20;76.20
43480;BME280;29067;35.492;-97.520;2023-03-22T01:58:29;96737.76;;;13.18;77.17
43480;BME280;29067;35.492;-97.520;2023-03-22T02:00:58;96739.68;;;13.06;77.36
43480;BME280;29067;35.492;-97.520;2023-03-22T02:03:35;96737.08;;;12.61;80.41
43480;BME280;29067;35.492;-97.520;2023-03-22T02:06:05;96734.37;;;13.14;76.41
43480;BME280;29067;35.492;-97.520;2023-03-22T02:08:33;96742.28;;;13.09;76.94
43480;BME280;29067;35.492;-97.520;2023-03-22T02:11:03;96740.85;;;12.37;81.16
43480;BME280;29067;35.492;-97.520;2023-03-22T02:13:41;96748.17;;;13.47;77.11
43480;BME280;29067;35.492;-97.520;2023-03-22T02:16:21;96760.22;;;12.39;81.32
43480;BME280;29067;35.492;-97.520;2023-03-22T02:19:04;96766.73;;;12.35;80.92
43480;BME280;29067;35.492;-97.520;2023-03-22T02:21:53;96763.92;;;11.56;89.71
43480;BME280;29067;35.492;-97.520;2023-03-22T02:25:46;96762.08;;;11.33;88.43
43480;BME280;29067;35.492;-97.520;2023-03-22T02:28:34;96760.21;;;11.73;89.12
43480;BME280;29067;35.492;-97.520;2023-03-22T02:31:22;96762.11;;;12.41;86.66
43480;BME280;29067;35.492;-97.520;2023-03-22T02:34:25;96761.47;;;11.82;89.00
43480;BME280;29067;35.492;-97.520;2023-03-22T02:37:09;96764.09;;;11.88;89.81
43480;BME280;29067;35.492;-97.520;2023-03-22T02:39:46;96762.21;;;11.94;92.54
43480;BME280;29067;35.492;-97.520;2023-03-22T02:42:26;96764.66;;;11.45;94.43
43480;BME280;29067;35.492;-97.520;2023-03-22T02:45:02;96768.03;;;10.94;98.42
43480;BME280;29067;35.492;-97.520;2023-03-22T02:47:38;96761.26;;;11.81;92.95
43480;BME280;29067;35.492;-97.520;2023-03-22T02:50:12;96758.99;;;11.54;97.46
43480;BME280;29067;35.492;-97.520;2023-03-22T02:52:45;96760.68;;;11.28;100.00
43480;BME280;29067;35.492;-97.520;2023-03-22T02:55:20;96759.26;;;12.13;95.76
43480;BME280;29067;35.492;-97.520;2023-03-22T02:57:55;96769.32;;;11.16;99.28
43480;BME280;29067;35.492;-97.520;2023-03-22T03:00:25;96765.96;;;11.94;94.69
43480;BME280;29067;35.492;-97.520;2023-03-22T03:02:56;96772.94;;;11.86;96.60
43480;BME280;29067;35.492;-97.520;2023-03-22T03:05:29;96782.17;;;12.23;90.23
43480;BME280;29067;35.492;-97.520;2023-03-22T03:08:00;96781.66;;;12.83;88.64
43480;BME280;29067;35.492;-97.520;2023-03-22T03:10:29;96786.29;;;12.40;93.62
43480;BME280;29067;35.492;-97.520;2023-03-22T03:12:58;96786.41;;;11.84;96.22
43480;BME280;29067;35.492;-97.520;2023-03-22T03:15:26;96797.06;;;11.64;99.92
43480;BME280;29067;35.492;-97.520;2023-03-22T03:18:08;96791.66;;;11.84;99.11
43480;BME280;29067;35.492;-97.520;2023-03-22T03:20:48;96789.11;;;12.07;97.22
43480;BME280;29067;35.492;-97.520;2023-03-22T03:23:27;96790.35;;;11.98;100.00
43480;BME280;29067;35.492;-97.520;2023-03-22T03:26:01;96789.93;;;11.35;100.00
43480;BME280;29067;35.492;-97.520;2023-03-22T03:28:36;96787.20;;;12.15;100.00
43480;BME280;29067;35.492;-97.520;2023-03-22T03:31:12;96783.03;;;11.06;100.00
43480;BME280;29067;35.492;-97.520;2023-03-22T03:33:47;96788.42;;;12.02;100.00
43480;BME280;29067;35.492;-97.520;2023-03-22T03:36:20;96787.60;;;12.07;100.00
43480;BME280;29067;35.492;-97.520;2023-03-22T03:38:50;96793.97;;;10.66;100.00
43480;BME280;29067;35.492;-97.520;2023-03-22T03:41:22;96787.02;;;12.10;100.00
43480;BME280;29067;35.492;-97.520;2023-03-22T03:43:52;96791.36;;;11.38;100.00
43480;BME280;29067;35.492;-97.520;2023-03-22T03:46:21;96788.12;;;12.65;100.00
43480;BME280;29067;35.492;-97.520;2023-03-22T03:48:51;96786.05;;;12.21;100.00
43480;BME280;29067;35.492;-97.520;2023-03-22T03:51:19;96793.15;;;12.11;100.00
43480;BME280;29067;35.492;-97.520;2023-03-22T03:53:48;96790.23;;;11.93;100.00
43480;BME280;29067;35.492;-97.520;2023-03-22T03:56:15;96793.10;;;12.51;100.00
43480;BME280;29067;35.492;-97.520;2023-03-22T03:58:43;96789.45;;;12.39;100.00
43480;BME280;29067;35.492;-97.520;2023-03-22T04:01:11;96794.40;;;12.93;97.43
43480;BME280;29067;35.492;-97.520;2023-03-22T04:03:39;96794.14;;;12.90;94.58
43480;BME280;29067;35.492;-97.520;2023-03-22T04:06:07;96787.35;;;11.50;100.00
43480;BME280;29067;35.492;-97.520;2023-03-22T04:08:35;96793.22;;;11.42;100.00
43480;BME280;29067;35.492;-97.520;2023-03-22T04:11:03;96795.13;;;11.46;100.00
43480;BME280;29067;35.492;-97.520;2023-03-22T04:13:30;96789.11;;;12.71;98.94
43480;BME280;29067;35.492;-97.520;2023-03-22T04:15:58;96802.13;;;12.00;100.00
43480;BME280;29067;35.492;-97.520;2023-03-22T04:18:26;96785.86;;;11.72;100.00
43480;BME280;29067;35.492;-97.520;2023-03-22T04:20:54;96780.67;;;12.21;100.00
43480;BME280;29067;35.492;-97.520;2023-03-22T04:23:21;96784.10;;;12.30;100.00
43480;BME280;29067;35.492;-97.520;2023-03-22T04:25:49;96776.22;;;11.70;100.00
43480;BME280;29067;35.492;-97.520;2023-03-22T04:28:18;96771.04;;;12.39;100.00
43480;BME280;29067;35.492;-97.520;2023-03-22T04:30:46;96767.40;;;11.60;100.00
43480;BME280;29067;35.492;-97.520;2023-03-22T04:33:15;96761.15;;;12.08;100.00
43480;BME280;29067;35.492;-97.520;2023-03-22T04:35:42;96762.51;;;11.15;100.00
43480;BME280;29067;35.492;-97.520;2023-03-22T04:38:10;96761.65;;;11.74;100.00
43480;BME280;29067;35.492;-97.520;2023-03-22T04:40:39;96740.84;;;11.59;100.00
43480;BME280;29067;35.492;-97.520;2023-03-22T04:43:07;96746.63;;;11.44;100.00
43480;BME280;29067;35.492;-97.520;2023-03-22T04:45:35;96742.14;;;12.54;100.00
43480;BME280;29067;35.492;-97.520;2023-03-22T04:48:03;96747.32;;;11.73;100.00
43480;BME280;29067;35.492;-97.520;2023-03-22T04:50:31;96752.33;;;12.81;100.00
43480;BME280;29067;35.492;-97.520;2023-03-22T04:53:00;96754.95;;;11.28;100.00
43480;BME280;29067;35.492;-97.520;2023-03-22T04:55:28;96752.91;;;11.57;100.00
43480;BME280;29067;35.492;-97.520;2023-03-22T04:57:56;96737.17;;;12.48;100.00
43480;BME280;29067;35.492;-97.520;2023-03-22T05:00:24;96742.59;;;11.40;100.00
43480;BME280;29067;35.492;-97.520;2023-03-22T05:02:52;96741.83;;;11.44;100.00
43480;BME280;29067;35.492;-97.520;2023-03-22T05:05:20;96735.22;;;12.09;100.00
43480;BME280;29067;35.492;-97.520;2023-03-22T05:07:47;96742.85;;;11.89;100.00
43480;BME280;29067;35.492;-97.520;2023-03-22T05:10:15;96753.52;;;11.83;100.00
43480;BME280;29067;35.492;-97.520;2023-03-22T05:12:43;96751.36;;;11.64;100.00
43480;BME280;29067;35.492;-97.520;2023-03-22T05:15:12;96753.41;;;10.70;100.00
43480;BME280;29067;35.492;-97.520;2023-03-22T05:17:40;96754.16;;;11.42;100.00
43480;BME280;29067;35.492;-97.520;2023-03-22T05:20:08;96749.17;;;10.85;100.00
43480;BME280;29067;35.492;-97.520;2023-03-22T05:22:36;96748.65;;;11.35;100.00
43480;BME280;29067;35.492;-97.520;2023-03-22T05:25:06;96758.95;;;11.27;100.00
43480;BME280;29067;35.492;-97.520;2023-03-22T05:27:34;96761.70;;;11.34;100.00
43480;BME280;29067;35.492;-97.520;2023-03-22T05:30:03;96761.12;;;10.93;100.00
43480;BME280;29067;35.492;-97.520;2023-03-22T05:32:31;96751.42;;;11.55;100.00
43480;BME280;29067;35.492;-97.520;2023-03-22T05:34:59;96752.61;;;11.74;100.00
43480;BME280;29067;35.492;-97.520;2023-03-22T05:37:27;96749.77;;;11.69;100.00
43480;BME280;29067;35.492;-97.520;2023-03-22T05:39:55;96746.62;;;11.44;100.00
43480;BME280;29067;35.492;-97.520;2023-03-22T05:42:23;96741.03;;;11.43;100.00
43480;BME280;29067;35.492;-97.520;2023-03-22T05:44:51;96744.57;;;11.37;100.00
43480;BME280;29067;35.492;-97.520;2023-03-22T05:47:18;96744.42;;;11.90;100.00
43480;BME280;29067;35.492;-97.520;2023-03-22T05:49:46;96750.67;;;11.52;100.00
43480;BME280;29067;35.492;-97.520;2023-03-22T05:52:14;96747.08;;;11.13;100.00
43480;BME280;29067;35.492;-97.520;2023-03-22T05:54:42;96752.59;;;11.60;100.00
43480;BME280;29067;35.492;-97.520;2023-03-22T05:57:10;96746.64;;;11.28;100.00
43480;BME280;29067;35.492;-97.520;2023-03-22T05:59:38;96741.75;;;11.73;100.00
43480;BME280;29067;35.492;-97.520;2023-03-22T06:02:07;96750.22;;;10.68;100.00
43480;BME280;29067;35.492;-97.520;2023-03-22T06:04:34;96746.75;;;11.19;100.00
43480;BME280;29067;35.492;-97.520;2023-03-22T06:07:02;96752.53;;;11.26;100.00
43480;BME280;29067;35.492;-97.520;2023-03-22T06:09:30;96745.13;;;11.49;100.00
43480;BME280;29067;35.492;-97.520;2023-03-22T06:11:58;96759.27;;;11.29;100.00
43480;BME280;29067;35.492;-97.520;2023-03-22T06:14:26;96750.03;;;10.95;100.00
43480;BME280;29067;35.492;-97.520;2023-03-22T06:16:54;96750.72;;;11.26;100.00
43480;BME280;29067;35.492;-97.520;2023-03-22T06:19:22;96747.31;;;11.73;100.00
43480;BME280;29067;35.492;-97.520;2023-03-22T06:21:50;96755.84;;;10.67;100.00
43480;BME280;29067;35.492;-97.520;2023-03-22T06:24:18;96747.27;;;10.88;100.00
43480;BME280;29067;35.492;-97.520;2023-03-22T06:26:46;96762.16;;;11.13;100.00
43480;BME280;29067;35.492;-97.520;2023-03-22T06:29:14;96757.96;;;11.26;100.00
43480;BME280;29067;35.492;-97.520;2023-03-22T06:31:42;96760.37;;;11.19;100.00
43480;BME280;29067;35.492;-97.520;2023-03-22T06:34:09;96764.95;;;11.90;100.00
43480;BME280;29067;35.492;-97.520;2023-03-22T06:36:37;96751.38;;;11.66;100.00
43480;BME280;29067;35.492;-97.520;2023-03-22T06:39:05;96754.63;;;11.02;100.00
43480;BME280;29067;35.492;-97.520;2023-03-22T06:41:33;96753.02;;;11.85;100.00
43480;BME280;29067;35.492;-97.520;2023-03-22T06:44:01;96751.29;;;11.92;100.00
43480;BME280;29067;35.492;-97.520;2023-03-22T06:46:29;96754.50;;;11.81;100.00
43480;BME280;29067;35.492;-97.520;2023-03-22T06:48:57;96758.15;;;11.64;100.00
43480;BME280;29067;35.492;-97.520;2023-03-22T06:51:24;96760.69;;;11.17;100.00
43480;BME280;29067;35.492;-97.520;2023-03-22T06:53:52;96757.32;;;10.65;100.00
43480;BME280;29067;35.492;-97.520;2023-03-22T06:56:20;96762.08;;;11.79;100.00
43480;BME280;29067;35.492;-97.520;2023-03-22T06:58:49;96762.73;;;11.55;100.00
43480;BME280;29067;35.492;-97.520;2023-03-22T07:01:17;96756.77;;;11.52;100.00
43480;BME280;29067;35.492;-97.520;2023-03-22T07:03:45;96750.27;;;11.01;100.00
43480;BME280;29067;35.492;-97.520;2023-03-22T07:06:12;96752.63;;;11.52;100.00
43480;BME280;29067;35.492;-97.520;2023-03-22T07:08:40;96744.76;;;11.75;100.00
43480;BME280;29067;35.492;-97.520;2023-03-22T07:11:08;96748.51;;;11.00;100.00
43480;BME280;29067;35.492;-97.520;2023-03-22T07:13:35;96748.91;;;11.12;100.00
43480;BME280;29067;35.492;-97.520;2023-03-22T07:16:04;96744.01;;;11.63;100.00
43480;BME280;29067;35.492;-97.520;2023-03-22T07:18:32;96744.51;;;12.22;100.00
43480;BME280;29067;35.492;-97.520;2023-03-22T07:21:00;96747.80;;;11.68;100.00
43480;BME280;29067;35.492;-97.520;2023-03-22T07:23:28;96743.26;;;12.09;100.00
43480;BME280;29067;35.492;-97.520;2023-03-22T07:25:55;96743.98;;;11.64;100.00
43480;BME280;29067;35.492;-97.520;2023-03-22T07:28:23;96743.63;;;12.10;100.00
43480;BME280;29067;35.492;-97.520;2023-03-22T07:31:00;96737.36;;;11.84;100.00
43480;BME280;29067;35.492;-97.520;2023-03-22T07:33:28;96739.16;;;11.42;100.00
43480;BME280;29067;35.492;-97.520;2023-03-22T07:35:56;96742.00;;;11.92;100.00
43480;BME280;29067;35.492;-97.520;2023-03-22T07:38:24;96736.10;;;12.08;100.00
43480;BME280;29067;35.492;-97.520;2023-03-22T07:40:53;96741.01;;;12.60;100.00
43480;BME280;29067;35.492;-97.520;2023-03-22T07:43:21;96734.30;;;12.25;100.00
43480;BME280;29067;35.492;-97.520;2023-03-22T07:45:50;96747.25;;;11.35;100.00
43480;BME280;29067;35.492;-97.520;2023-03-22T08:04:41;96757.07;;;12.64;100.00
43480;BME280;29067;35.492;-97.520;2023-03-22T08:07:08;96757.87;;;9.93;100.00
43480;BME280;29067;35.492;-97.520;2023-03-22T08:09:37;96761.66;;;11.46;100.00
43480;BME280;29067;35.492;-97.520;2023-03-22T08:12:05;96759.37;;;11.65;100.00
43480;BME280;29067;35.492;-97.520;2023-03-22T08:14:33;96755.56;;;13.04;100.00
43480;BME280;29067;35.492;-97.520;2023-03-22T08:17:01;96752.27;;;11.91;100.00
43480;BME280;29067;35.492;-97.520;2023-03-22T08:19:29;96753.68;;;11.38;100.00
43480;BME280;29067;35.492;-97.520;2023-03-22T08:21:57;96747.33;;;11.96;100.00
43480;BME280;29067;35.492;-97.520;2023-03-22T08:24:26;96749.15;;;12.27;100.00
43480;BME280;29067;35.492;-97.520;2023-03-22T08:26:53;96750.13;;;12.97;100.00
43480;BME280;29067;35.492;-97.520;2023-03-22T08:29:22;96745.57;;;12.52;100.00
43480;BME280;29067;35.492;-97.520;2023-03-22T08:31:50;96740.14;;;12.22;100.00
43480;BME280;29067;35.492;-97.520;2023-03-22T08:34:18;96737.77;;;12.60;100.00
43480;BME280;29067;35.492;-97.520;2023-03-22T08:36:47;96742.91;;;13.61;100.00
43480;BME280;29067;35.492;-97.520;2023-03-22T08:39:15;96744.68;;;12.98;100.00
43480;BME280;29067;35.492;-97.520;2023-03-22T08:41:43;96743.87;;;12.15;100.00
43480;BME280;29067;35.492;-97.520;2023-03-22T08:44:10;96741.37;;;12.25;100.00
43480;BME280;29067;35.492;-97.520;2023-03-22T08:46:38;96753.94;;;11.33;100.00
43480;BME280;29067;35.492;-97.520;2023-03-22T08:49:06;96741.58;;;13.31;100.00
43480;BME280;29067;35.492;-97.520;2023-03-22T08:51:34;96740.85;;;13.20;100.00
43480;BME280;29067;35.492;-97.520;2023-03-22T08:54:01;96739.99;;;13.78;100.00
43480;BME280;29067;35.492;-97.520;2023-03-22T08:56:29;96744.59;;;12.11;100.00
43480;BME280;29067;35.492;-97.520;2023-03-22T08:58:57;96734.12;;;12.21;100.00
43480;BME280;29067;35.492;-97.520;2023-03-22T09:01:24;96732.44;;;12.62;100.00
43480;BME280;29067;35.492;-97.520;2023-03-22T09:03:52;96731.46;;;12.05;100.00
43480;BME280;29067;35.492;-97.520;2023-03-22T09:06:25;96723.59;;;12.36;100.00
43480;BME280;29067;35.492;-97.520;2023-03-22T09:08:54;96730.86;;;12.16;100.00
43480;BME280;29067;35.492;-97.520;2023-03-22T09:11:23;96743.50;;;12.41;100.00
43480;BME280;29067;35.492;-97.520;2023-03-22T09:13:52;96733.00;;;11.36;100.00
43480;BME280;29067;35.492;-97.520;2023-03-22T09:16:19;96720.25;;;12.97;100.00
43480;BME280;29067;35.492;-97.520;2023-03-22T09:18:47;96715.45;;;11.31;100.00
43480;BME280;29067;35.492;-97.520;2023-03-22T09:21:15;96715.96;;;12.00;100.00
43480;BME280;29067;35.492;-97.520;2023-03-22T09:23:42;96714.53;;;12.73;100.00
43480;BME280;29067;35.492;-97.520;2023-03-22T09:26:10;96714.14;;;12.45;100.00
43480;BME280;29067;35.492;-97.520;2023-03-22T09:28:38;96713.89;;;12.44;100.00
43480;BME280;29067;35.492;-97.520;2023-03-22T09:31:07;96713.64;;;12.21;100.00
43480;BME280;29067;35.492;-97.520;2023-03-22T09:33:38;96716.48;;;12.36;100.00
43480;BME280;29067;35.492;-97.520;2023-03-22T09:36:07;96714.31;;;12.08;100.00
43480;BME280;29067;35.492;-97.520;2023-03-22T09:38:36;96714.60;;;11.80;100.00
43480;BME280;29067;35.492;-97.520;2023-03-22T09:41:05;96707.04;;;12.25;100.00
43480;BME280;29067;35.492;-97.520;2023-03-22T09:43:37;96710.07;;;12.14;100.00
43480;BME280;29067;35.492;-97.520;2023-03-22T09:46:12;96708.73;;;11.72;100.00
43480;BME280;29067;35.492;-97.520;2023-03-22T09:48:43;96706.31;;;12.26;100.00
43480;BME280;29067;35.492;-97.520;2023-03-22T09:51:25;96706.59;;;11.80;100.00
43480;BME280;29067;35.492;-97.520;2023-03-22T09:53:56;96713.84;;;12.21;100.00
43480;BME280;29067;35.492;-97.520;2023-03-22T09:56:26;96723.40;;;12.35;100.00
43480;BME280;29067;35.492;-97.520;2023-03-22T09:59:00;96720.15;;;11.95;100.00
43480;BME280;29067;35.492;-97.520;2023-03-22T10:01:37;96716.53;;;12.22;100.00
43480;BME280;29067;35.492;-97.520;2023-03-22T10:04:46;96713.46;;;12.80;100.00
43480;BME280;29067;35.492;-97.520;2023-03-22T10:07:26;96712.78;;;12.73;100.00
43480;BME280;29067;35.492;-97.520;2023-03-22T10:10:05;96716.50;;;12.10;100.00
43480;BME280;29067;35.492;-97.520;2023-03-22T10:12:38;96719.65;;;11.86;100.00
43480;BME280;29067;35.492;-97.520;2023-03-22T10:15:12;96730.32;;;11.38;100.00
43480;BME280;29067;35.492;-97.520;2023-03-22T10:17:44;96732.26;;;12.28;100.00
43480;BME280;29067;35.492;-97.520;2023-03-22T10:20:22;96739.35;;;11.64;100.00
43480;BME280;29067;35.492;-97.520;2023-03-22T10:22:53;96737.31;;;11.65;100.00
43480;BME280;29067;35.492;-97.520;2023-03-22T10:25:27;96734.01;;;12.06;100.00
43480;BME280;29067;35.492;-97.520;2023-03-22T10:27:58;96728.49;;;12.56;100.00
43480;BME280;29067;35.492;-97.520;2023-03-22T10:30:27;96726.22;;;12.59;100.00
43480;BME280;29067;35.492;-97.520;2023-03-22T10:33:00;96731.48;;;11.60;100.00
43480;BME280;29067;35.492;-97.520;2023-03-22T10:35:30;96727.92;;;11.55;100.00
43480;BME280;29067;35.492;-97.520;2023-03-22T10:38:01;96725.80;;;12.06;100.00
43480;BME280;29067;35.492;-97.520;2023-03-22T10:40:33;96725.87;;;12.06;100.00
43480;BME280;29067;35.492;-97.520;2023-03-22T10:43:07;96723.88;;;12.88;100.00
43480;BME280;29067;35.492;-97.520;2023-03-22T10:45:37;96734.30;;;11.73;100.00
43480;BME280;29067;35.492;-97.520;2023-03-22T10:48:09;96736.02;;;12.18;100.00
43480;BME280;29067;35.492;-97.520;2023-03-22T10:50:43;96738.38;;;11.60;100.00
43480;BME280;29067;35.492;-97.520;2023-03-22T10:53:18;96737.58;;;12.18;100.00
43480;BME280;29067;35.492;-97.520;2023-03-22T10:55:50;96741.15;;;12.15;100.00
43480;BME280;29067;35.492;-97.520;2023-03-22T10:58:20;96745.58;;;11.80;100.00
43480;BME280;29067;35.492;-97.520;2023-03-22T11:00:49;96743.94;;;11.42;100.00
43480;BME280;29067;35.492;-97.520;2023-03-22T11:03:27;96748.56;;;11.86;100.00
43480;BME280;29067;35.492;-97.520;2023-03-22T11:06:00;96752.03;;;11.07;100.00
43480;BME280;29067;35.492;-97.520;2023-03-22T11:08:38;96758.99;;;12.21;100.00
43480;BME280;29067;35.492;-97.520;2023-03-22T11:11:07;96758.80;;;11.61;100.00
43480;BME280;29067;35.492;-97.520;2023-03-22T11:13:42;96758.67;;;12.28;100.00
43480;BME280;29067;35.492;-97.520;2023-03-22T11:16:16;96758.90;;;12.78;100.00
43480;BME280;29067;35.492;-97.520;2023-03-22T11:18:44;96759.91;;;11.69;100.00
43480;BME280;29067;35.492;-97.520;2023-03-22T11:21:15;96766.33;;;11.67;100.00
43480;BME280;29067;35.492;-97.520;2023-03-22T11:23:50;96762.81;;;13.02;100.00
43480;BME280;29067;35.492;-97.520;2023-03-22T11:26:28;96761.33;;;12.02;100.00
43480;BME280;29067;35.492;-97.520;2023-03-22T11:29:04;96760.20;;;11.93;100.00
43480;BME280;29067;35.492;-97.520;2023-03-22T11:32:20;96758.10;;;12.96;100.00
43480;BME280;29067;35.492;-97.520;2023-03-22T11:34:59;96767.22;;;11.48;100.00
43480;BME280;29067;35.492;-97.520;2023-03-22T11:37:28;96770.75;;;12.99;100.00
43480;BME280;29067;35.492;-97.520;2023-03-22T11:40:00;96762.84;;;12.63;100.00
43480;BME280;29067;35.492;-97.520;2023-03-22T11:42:29;96757.60;;;12.37;100.00
43480;BME280;29067;35.492;-97.520;2023-03-22T11:45:01;96756.36;;;12.74;100.00
43480;BME280;29067;35.492;-97.520;2023-03-22T11:47:33;96767.49;;;12.21;100.00
43480;BME280;29067;35.492;-97.520;2023-03-22T11:50:07;96766.97;;;11.99;100.00
43480;BME280;29067;35.492;-97.520;2023-03-22T11:52:35;96763.18;;;12.62;100.00
43480;BME280;29067;35.492;-97.520;2023-03-22T11:55:04;96774.19;;;12.67;100.00
43480;BME280;29067;35.492;-97.520;2023-03-22T11:57:33;96775.70;;;12.65;100.00
43480;BME280;29067;35.492;-97.520;2023-03-22T12:03:03;96782.83;;;12.31;100.00
43480;BME280;29067;35.492;-97.520;2023-03-22T12:05:32;96778.93;;;12.02;100.00
43480;BME280;29067;35.492;-97.520;2023-03-22T12:08:04;96780.76;;;12.13;100.00
43480;BME280;29067;35.492;-97.520;2023-03-22T12:10:40;96778.60;;;12.30;100.00
43480;BME280;29067;35.492;-97.520;2023-03-22T12:13:15;96771.15;;;13.42;100.00
43480;BME280;29067;35.492;-97.520;2023-03-22T12:15:49;96775.38;;;12.03;100.00
43480;BME280;29067;35.492;-97.520;2023-03-22T12:18:25;96778.85;;;11.96;100.00
43480;BME280;29067;35.492;-97.520;2023-03-22T12:20:55;96783.60;;;12.84;100.00
43480;BME280;29067;35.492;-97.520;2023-03-22T12:23:25;96792.43;;;11.70;100.00
43480;BME280;29067;35.492;-97.520;2023-03-22T12:25:58;96787.72;;;12.81;100.00
43480;BME280;29067;35.492;-97.520;2023-03-22T12:28:32;96792.72;;;12.34;100.00
43480;BME280;29067;35.492;-97.520;2023-03-22T12:31:01;96793.52;;;12.43;100.00
43480;BME280;29067;35.492;-97.520;2023-03-22T12:33:36;96787.91;;;12.42;100.00
43480;BME280;29067;35.492;-97.520;2023-03-22T12:36:10;96792.17;;;12.89;100.00
43480;BME280;29067;35.492;-97.520;2023-03-22T12:38:47;96793.34;;;12.91;100.00
43480;BME280;29067;35.492;-97.520;2023-03-22T12:41:25;96797.27;;;12.39;100.00
43480;BME280;29067;35.492;-97.520;2023-03-22T12:43:55;96801.84;;;12.25;100.00
43480;BME280;29067;35.492;-97.520;2023-03-22T12:46:26;96796.53;;;11.94;100.00
43480;BME280;29067;35.492;-97.520;2023-03-22T12:49:01;96794.01;;;12.81;100.00
43480;BME280;29067;35.492;-97.520;2023-03-22T12:51:30;96795.35;;;12.80;100.00
43480;BME280;29067;35.492;-97.520;2023-03-22T12:53:59;96800.35;;;11.76;100.00
43480;BME280;29067;35.492;-97.520;2023-03-22T12:56:31;96803.98;;;12.43;100.00
43480;BME280;29067;35.492;-97.520;2023-03-22T12:59:03;96804.09;;;11.60;100.00
43480;BME280;29067;35.492;-97.520;2023-03-22T13:01:36;96803.01;;;12.14;100.00
43480;BME280;29067;35.492;-97.520;2023-03-22T13:05:11;96813.12;;;12.65;100.00
43480;BME280;29067;35.492;-97.520;2023-03-22T13:07:51;96804.46;;;12.24;100.00
43480;BME280;29067;35.492;-97.520;2023-03-22T13:11:26;96810.52;;;12.95;100.00
43480;BME280;29067;35.492;-97.520;2023-03-22T13:13:54;96812.47;;;12.10;100.00